Monday, June 25, 2018, 4:09 AM GMT
Back to Local

CWPE, Point Lepreau, N. B.

Location: , , Canada Lat: 45.067
Local Time: 4:09 AM GMT ( 4:09 GMT) Lon: -66.467
Time Zone: GMT Elev: 3 ft

Show me the last for .
Show Coded

Time T Td Feel RH Dir Speed Gust Alt SLP Vis Weather Sky Remarks
2018-06-25 03:00 55 55 - 97 30° 7 - - 29.84 0 1-hr Precip Total: 0.04"
2018-06-25 02:00 58 56 - 93 30° 8 - - 29.84 0 None
2018-06-25 01:00 56 54 - 94 340° 6 - - 29.82 0 None
2018-06-25 00:00 55 53 - 93 280° 5 - - 29.80 0 None
2018-06-24 23:00 57 54 - 90 270° 5 - - 29.79 0 None
2018-06-24 22:00 58 55 - 89 280° 6 - - 29.78 0 None
2018-06-24 21:00 58 55 - 88 250° 6 - - 29.76 0 None
2018-06-24 20:00 58 55 - 89 230° 6 - - 29.76 0 None
2018-06-24 19:00 58 55 - 87 220° 9 - - 29.75 0 None
2018-06-24 18:00 63 58 - 84 240° 7 - - 29.74 0 None
2018-06-24 17:00 59 55 - 87 220° 9 18 - 29.77 0 None
2018-06-24 16:00 62 58 - 89 210° 9 - - 29.75 0 None
2018-06-24 15:00 60 58 - 90 220° 8 - - 29.75 0 None
2018-06-24 14:00 60 57 - 89 220° 6 - - 29.74 0 1-hr Precip Total: 0.02"
2018-06-24 13:00 58 58 - 96 260° 5 - - 29.75 0 None
2018-06-24 12:00 56 58 - 104 280° 1 - - 29.73 0 None
2018-06-24 11:00 55 55 - 100 310° 3 - - 29.73 0 None
2018-06-24 10:00 54 54 - 100 270° 3 - - 29.74 0 None
2018-06-24 09:00 54 54 - 100 260° 2 - - 29.74 0 None
2018-06-24 08:00 53 53 - 99 170° 1 - - 29.72 0 None
2018-06-24 07:00 54 54 - 99 20° 2 - - 29.74 0 1-hr Precip Total: 0.05"
2018-06-24 06:00 55 55 - 99 350° 3 - - 29.76 0 1-hr Precip Total: 0.12"
2018-06-24 05:00 55 55 - 98 10° 6 - - 29.79 0 1-hr Precip Total: 0.10"

Support USWX by starting your Amazon purchase here.